createdAt,value
2019-05-25T00:00:56.677Z,2.80
2019-05-25T00:03:25.099Z,5.00
2019-05-25T00:05:53.501Z,4.33
2019-05-25T00:08:21.921Z,3.20
2019-05-25T00:10:50.312Z,3.40
2019-05-25T00:13:18.724Z,3.10
2019-05-25T00:15:47.144Z,3.43
2019-05-25T00:18:15.544Z,4.27
2019-05-25T00:20:43.960Z,4.17
2019-05-25T00:23:12.357Z,3.03
2019-05-25T00:25:40.780Z,2.20
2019-05-25T00:28:09.275Z,1.90
2019-05-25T00:30:37.667Z,1.83
2019-05-25T00:33:06.096Z,1.70
2019-05-25T00:35:34.498Z,2.00
2019-05-25T00:38:02.902Z,1.93
2019-05-25T00:40:31.324Z,1.80
2019-05-25T00:42:59.712Z,2.03
2019-05-25T00:45:28.105Z,2.00
2019-05-25T00:47:56.725Z,1.57
2019-05-25T00:50:25.139Z,1.90
2019-05-25T00:52:53.532Z,4.90
2019-05-25T00:55:21.960Z,3.13
2019-05-25T00:57:50.363Z,2.00
2019-05-25T01:00:18.885Z,2.40
2019-05-25T01:02:47.365Z,2.10
2019-05-25T01:05:15.864Z,2.10
2019-05-25T01:07:44.259Z,2.00
2019-05-25T01:10:12.937Z,1.83
2019-05-25T01:12:41.331Z,2.00
2019-05-25T01:15:10.891Z,2.10
2019-05-25T01:17:39.333Z,1.87
2019-05-25T01:20:09.936Z,1.60
2019-05-25T01:22:38.533Z,1.80
2019-05-25T01:25:07.546Z,1.87
2019-05-25T01:27:35.945Z,2.10
2019-05-25T01:30:08.766Z,1.90
2019-05-25T01:32:37.282Z,1.90
2019-05-25T01:35:06.421Z,2.10
2019-05-25T01:37:34.936Z,2.40
2019-05-25T01:40:04.500Z,2.17
2019-05-25T01:42:32.947Z,2.70
2019-05-25T01:45:01.383Z,2.20
2019-05-25T01:47:29.785Z,2.70
2019-05-25T01:49:58.186Z,2.90
2019-05-25T01:52:26.626Z,2.60
2019-05-25T01:54:59.997Z,2.40
2019-05-25T01:57:25.150Z,2.27
2019-05-25T01:59:53.591Z,2.17
2019-05-25T02:02:21.998Z,2.47
2019-05-25T02:04:50.397Z,2.20
2019-05-25T02:07:18.830Z,2.23
2019-05-25T02:09:47.236Z,2.70
2019-05-25T02:12:15.709Z,2.20
2019-05-25T02:14:44.141Z,2.40
2019-05-25T02:17:12.546Z,2.93
2019-05-25T02:19:40.942Z,3.27
2019-05-25T02:22:09.389Z,3.87
2019-05-25T02:24:37.793Z,3.00
2019-05-25T02:27:06.194Z,2.70
2019-05-25T02:29:34.787Z,2.57
2019-05-25T02:32:03.191Z,2.83
2019-05-25T02:34:31.594Z,2.63
2019-05-25T02:37:00.027Z,2.40
2019-05-25T02:39:28.421Z,2.40
2019-05-25T02:41:56.821Z,2.80
2019-05-25T02:44:25.315Z,2.53
2019-05-25T02:46:53.714Z,2.80
2019-05-25T02:49:22.134Z,2.53
2019-05-25T02:51:50.996Z,2.80
2019-05-25T02:54:19.500Z,2.80
2019-05-25T02:56:47.893Z,2.53
2019-05-25T02:59:16.375Z,2.83
2019-05-25T03:01:44.777Z,2.90
2019-05-25T03:04:13.201Z,2.90
2019-05-25T03:06:42.286Z,2.80
2019-05-25T03:09:10.743Z,2.83
2019-05-25T03:11:40.447Z,2.80
2019-05-25T03:14:09.019Z,2.90
2019-05-25T03:16:37.468Z,2.73
2019-05-25T03:19:05.866Z,2.87
2019-05-25T03:21:34.374Z,2.40
2019-05-25T03:24:02.777Z,2.70
2019-05-25T03:26:31.225Z,2.90
2019-05-25T03:28:59.702Z,2.73
2019-05-25T03:31:28.124Z,2.77
2019-05-25T03:33:56.566Z,2.73
2019-05-25T03:36:25.049Z,2.93
2019-05-25T03:38:53.534Z,3.23
2019-05-25T03:41:21.938Z,3.10
2019-05-25T03:43:50.352Z,2.50
2019-05-25T03:46:18.868Z,2.80
2019-05-25T03:48:47.328Z,3.03
2019-05-25T03:51:15.955Z,2.70
2019-05-25T03:53:44.454Z,2.70
2019-05-25T03:56:12.856Z,2.80
2019-05-25T03:58:41.254Z,2.67
2019-05-25T04:01:10.395Z,2.70
2019-05-25T04:03:38.846Z,2.90
2019-05-25T04:06:07.345Z,2.90
2019-05-25T04:08:35.784Z,2.80
2019-05-25T04:11:04.326Z,2.80
2019-05-25T04:13:32.788Z,2.67
2019-05-25T04:16:01.909Z,2.97
2019-05-25T04:18:31.149Z,3.30
2019-05-25T04:20:59.890Z,2.70
2019-05-25T04:23:28.315Z,2.80
2019-05-25T04:25:56.715Z,3.10
2019-05-25T04:28:25.227Z,2.70
2019-05-25T04:30:53.675Z,2.83
2019-05-25T04:33:22.166Z,2.60
2019-05-25T04:35:50.696Z,2.77
2019-05-25T04:38:19.135Z,3.03
2019-05-25T04:40:47.636Z,2.97
2019-05-25T04:43:17.005Z,3.30
2019-05-25T04:45:45.413Z,3.27
2019-05-25T04:48:13.820Z,3.23
2019-05-25T04:50:42.295Z,3.40
2019-05-25T04:53:10.698Z,3.60
2019-05-25T04:55:39.149Z,4.10
2019-05-25T04:58:07.600Z,4.07
2019-05-25T05:00:36.027Z,4.07
2019-05-25T05:03:05.029Z,4.50
2019-05-25T05:05:33.422Z,4.93
2019-05-25T05:08:01.825Z,5.13
2019-05-25T05:10:30.263Z,5.40
2019-05-25T05:12:58.665Z,5.13
2019-05-25T05:15:27.069Z,5.63
2019-05-25T05:17:55.565Z,5.30
2019-05-25T05:20:23.949Z,5.58
2019-05-25T05:22:52.417Z,5.63
2019-05-25T05:25:20.847Z,5.40
2019-05-25T05:27:49.249Z,6.23
2019-05-25T05:30:21.711Z,5.22
2019-05-25T05:32:50.106Z,6.13
2019-05-25T05:35:18.507Z,6.57
2019-05-25T05:37:47.246Z,6.50
2019-05-25T05:40:15.638Z,6.33
2019-05-25T05:42:47.168Z,7.10
2019-05-25T05:45:15.700Z,6.60
2019-05-25T05:47:46.602Z,6.97
2019-05-25T05:50:15.451Z,7.27
2019-05-25T05:52:44.270Z,7.03
2019-05-25T05:55:13.123Z,7.93
2019-05-25T05:57:41.623Z,7.57
2019-05-25T06:00:11.286Z,7.50
2019-05-25T06:02:39.772Z,8.60
2019-05-25T06:05:08.290Z,8.13
2019-05-25T06:07:36.677Z,8.80
2019-05-25T06:10:07.982Z,8.50
2019-05-25T06:12:36.380Z,9.20
2019-05-25T06:15:06.733Z,9.23
2019-05-25T06:17:35.134Z,9.33
2019-05-25T06:20:06.026Z,9.77
2019-05-25T06:22:34.442Z,10.47
2019-05-25T06:25:03.410Z,9.10
2019-05-25T06:27:31.878Z,10.40
2019-05-25T06:30:00.324Z,9.30
2019-05-25T06:32:28.721Z,9.70
2019-05-25T06:34:57.171Z,10.23
2019-05-25T06:37:25.580Z,10.90
2019-05-25T06:39:54.010Z,10.37
2019-05-25T06:42:22.413Z,10.50
2019-05-25T06:44:50.849Z,10.33
2019-05-25T06:47:19.321Z,10.93
2019-05-25T06:49:47.779Z,10.93
2019-05-25T06:52:16.218Z,10.20
2019-05-25T06:54:44.669Z,11.57
2019-05-25T06:57:13.074Z,11.50
2019-05-25T06:59:41.515Z,11.10
2019-05-25T07:02:09.937Z,10.90
2019-05-25T07:04:38.382Z,11.90
2019-05-25T07:07:06.790Z,11.70
2019-05-25T07:09:35.241Z,11.83
2019-05-25T07:12:04.733Z,11.33
2019-05-25T07:14:33.142Z,11.10
2019-05-25T07:17:01.588Z,11.47
2019-05-25T07:19:29.990Z,11.17
2019-05-25T07:21:58.461Z,11.03
2019-05-25T07:24:26.920Z,10.60
2019-05-25T07:26:55.312Z,10.07
2019-05-25T07:29:23.861Z,10.80
2019-05-25T07:31:52.601Z,10.30
2019-05-25T07:34:21.006Z,10.27
2019-05-25T07:36:49.412Z,10.13
2019-05-25T07:39:17.856Z,9.87
2019-05-25T07:41:46.245Z,11.13
2019-05-25T07:44:14.653Z,9.40
2019-05-25T07:46:43.138Z,9.23
2019-05-25T07:49:11.582Z,9.20
2019-05-25T07:51:39.989Z,9.60
2019-05-25T07:54:08.464Z,9.47
2019-05-25T07:56:36.873Z,9.10
2019-05-25T07:59:05.273Z,10.40
2019-05-25T08:01:33.754Z,10.10
2019-05-25T08:04:02.228Z,10.37
2019-05-25T08:06:30.626Z,10.63
2019-05-25T08:08:59.064Z,10.67
2019-05-25T08:11:27.473Z,11.73
2019-05-25T08:13:55.921Z,11.40
2019-05-25T08:16:24.367Z,15.13
2019-05-25T08:18:52.771Z,15.63
2019-05-25T08:21:21.178Z,15.00
2019-05-25T08:23:49.657Z,15.53
2019-05-25T08:26:18.058Z,16.53
2019-05-25T08:28:46.474Z,17.77
2019-05-25T08:31:14.906Z,17.70
2019-05-25T08:33:43.315Z,17.87
2019-05-25T08:36:11.771Z,18.00
2019-05-25T08:38:40.226Z,20.60
2019-05-25T08:41:08.633Z,21.17
2019-05-25T08:43:37.038Z,21.87
2019-05-25T08:46:06.306Z,21.37
2019-05-25T08:48:34.709Z,19.60
2019-05-25T08:51:03.119Z,17.97
2019-05-25T08:53:41.573Z,14.97
2019-05-25T08:56:01.851Z,16.13
2019-05-25T08:58:30.269Z,18.37
2019-05-25T09:00:59.277Z,17.10
2019-05-25T09:03:27.713Z,17.57
2019-05-25T09:05:56.113Z,16.93
2019-05-25T09:08:24.569Z,16.77
2019-05-25T09:10:52.978Z,19.57
2019-05-25T09:13:21.433Z,19.27
2019-05-25T09:15:49.887Z,18.50
2019-05-25T09:18:18.277Z,18.65
2019-05-25T09:20:46.718Z,20.30
2019-05-25T09:23:15.121Z,20.70
2019-05-25T09:25:43.567Z,20.00
2019-05-25T09:28:11.983Z,19.40
2019-05-25T09:30:40.420Z,18.97
2019-05-25T09:33:08.975Z,18.07
2019-05-25T09:35:37.578Z,19.63
2019-05-25T09:38:05.985Z,18.25
2019-05-25T09:40:34.442Z,19.27
2019-05-25T09:43:02.854Z,17.83
2019-05-25T09:45:31.266Z,18.80
2019-05-25T09:47:59.706Z,17.67
2019-05-25T09:50:28.124Z,16.50
2019-05-25T09:52:56.617Z,16.83
2019-05-25T09:55:25.329Z,15.93
2019-05-25T09:57:53.738Z,17.50
2019-05-25T10:00:22.477Z,17.50
2019-05-25T10:02:50.976Z,16.57
2019-05-25T10:05:19.655Z,17.17
2019-05-25T10:07:48.128Z,17.93
2019-05-25T10:10:17.198Z,16.90
2019-05-25T10:12:45.708Z,16.40
2019-05-25T10:15:14.661Z,16.13
2019-05-25T10:17:43.062Z,15.17
2019-05-25T10:20:12.037Z,16.23
2019-05-25T10:22:40.551Z,15.13
2019-05-25T10:25:10.870Z,15.13
2019-05-25T10:27:39.319Z,15.07
2019-05-25T10:30:08.654Z,14.70
2019-05-25T10:32:37.067Z,14.33
2019-05-25T10:35:08.086Z,15.10
2019-05-25T10:37:36.530Z,14.93
2019-05-25T10:40:07.294Z,13.77
2019-05-25T10:42:35.748Z,14.27
2019-05-25T10:45:09.169Z,14.10
2019-05-25T10:47:38.403Z,14.90
2019-05-25T10:50:09.139Z,15.07
2019-05-25T10:52:37.618Z,14.33
2019-05-25T10:55:07.636Z,13.17
2019-05-25T10:57:36.181Z,14.50
2019-05-25T11:00:10.327Z,14.85
2019-05-25T11:02:38.726Z,17.07
2019-05-25T11:05:10.185Z,15.93
2019-05-25T11:07:38.593Z,15.13
2019-05-25T11:10:08.240Z,15.10
2019-05-25T11:12:36.913Z,13.20
2019-05-25T11:15:07.632Z,13.67
2019-05-25T11:17:36.054Z,13.53
2019-05-25T11:20:07.638Z,13.03
2019-05-25T11:22:36.053Z,13.33
2019-05-25T11:25:06.582Z,13.90
2019-05-25T11:27:35.034Z,14.50
2019-05-25T11:30:09.433Z,13.63
2019-05-25T11:32:35.232Z,13.47
2019-05-25T11:35:04.516Z,14.77
2019-05-25T11:37:32.958Z,12.97
2019-05-25T11:40:01.364Z,14.20
2019-05-25T11:42:29.805Z,14.07
2019-05-25T11:44:59.162Z,15.10
2019-05-25T11:47:27.620Z,14.50
2019-05-25T11:49:56.054Z,13.77
2019-05-25T11:52:24.530Z,13.10
2019-05-25T11:54:52.966Z,13.95
2019-05-25T11:57:21.377Z,13.78
2019-05-25T11:59:49.820Z,13.27
2019-05-25T12:02:18.290Z,12.80
2019-05-25T12:04:46.735Z,11.43
2019-05-25T12:07:15.214Z,13.37
2019-05-25T12:09:43.628Z,12.53
2019-05-25T12:12:12.028Z,13.23
2019-05-25T12:14:42.674Z,12.90
2019-05-25T12:17:11.085Z,12.43
2019-05-25T12:19:39.605Z,12.83
2019-05-25T12:22:08.007Z,12.60
2019-05-25T12:24:36.442Z,14.03
2019-05-25T12:27:05.023Z,12.40
2019-05-25T12:29:33.480Z,13.03
2019-05-25T12:32:04.309Z,11.73
2019-05-25T12:34:32.049Z,11.90
2019-05-25T12:37:00.546Z,12.73
2019-05-25T12:39:28.992Z,13.10
2019-05-25T12:41:57.402Z,12.63
2019-05-25T12:44:25.874Z,13.30
2019-05-25T12:46:54.394Z,12.47
2019-05-25T12:49:22.838Z,11.93
2019-05-25T12:51:51.245Z,13.70
2019-05-25T12:54:19.649Z,13.57
2019-05-25T12:56:48.098Z,13.47
2019-05-25T12:59:16.542Z,14.77
2019-05-25T13:01:44.952Z,14.77
2019-05-25T13:04:13.397Z,16.00
2019-05-25T13:06:41.808Z,14.73
2019-05-25T13:09:10.226Z,16.27
2019-05-25T13:11:38.671Z,14.53
2019-05-25T13:14:14.691Z,15.57
2019-05-25T13:16:37.207Z,14.73
2019-05-25T13:19:05.658Z,14.30
2019-05-25T13:21:34.094Z,12.73
2019-05-25T13:24:02.515Z,11.40
2019-05-25T13:26:31.178Z,14.07
2019-05-25T13:28:59.590Z,14.33
2019-05-25T13:31:28.088Z,13.50
2019-05-25T13:33:56.532Z,13.53
2019-05-25T13:36:25.023Z,13.80
2019-05-25T13:38:53.438Z,13.20
2019-05-25T13:41:21.901Z,14.73
2019-05-25T13:43:50.313Z,13.83
2019-05-25T13:46:18.714Z,14.05
2019-05-25T13:48:47.918Z,13.00
2019-05-25T13:51:16.324Z,10.83
2019-05-25T13:53:44.731Z,12.97
2019-05-25T13:56:13.190Z,12.47
2019-05-25T13:58:42.414Z,12.40
2019-05-25T14:01:25.608Z,13.63
2019-05-25T14:03:40.948Z,11.77
2019-05-25T14:06:09.397Z,11.73
2019-05-25T14:08:37.809Z,10.40
2019-05-25T14:11:06.257Z,9.47
2019-05-25T14:13:34.673Z,10.40
2019-05-25T14:16:07.171Z,9.23
2019-05-25T14:18:33.243Z,9.20
2019-05-25T14:21:01.638Z,8.30
2019-05-25T14:23:30.094Z,9.33
2019-05-25T14:25:58.490Z,8.30
2019-05-25T14:28:26.898Z,9.57
2019-05-25T14:30:55.544Z,8.27
2019-05-25T14:33:23.946Z,7.30
2019-05-25T14:35:52.355Z,7.60
2019-05-25T14:38:20.793Z,6.07
2019-05-25T14:40:49.193Z,6.50
2019-05-25T14:43:17.595Z,6.23
2019-05-25T14:45:46.030Z,5.80
2019-05-25T14:48:14.470Z,5.67
2019-05-25T14:50:42.967Z,6.17
2019-05-25T14:53:11.369Z,5.93
2019-05-25T14:55:39.801Z,5.17
2019-05-25T14:58:08.207Z,4.93
2019-05-25T15:00:36.940Z,4.93
2019-05-25T15:03:05.411Z,4.20
2019-05-25T15:05:33.843Z,4.20
2019-05-25T15:08:02.284Z,5.53
2019-05-25T15:10:30.677Z,5.73
2019-05-25T15:12:59.125Z,5.33
2019-05-25T15:15:27.574Z,5.03
2019-05-25T15:17:56.014Z,4.20
2019-05-25T15:20:24.458Z,4.43
2019-05-25T15:22:52.853Z,3.90
2019-05-25T15:25:21.267Z,4.00
2019-05-25T15:27:49.700Z,3.97
2019-05-25T15:30:18.503Z,3.70
2019-05-25T15:32:46.926Z,3.97
2019-05-25T15:35:19.807Z,3.70
2019-05-25T15:37:46.126Z,3.87
2019-05-25T15:40:15.166Z,3.67
2019-05-25T15:42:43.570Z,3.43
2019-05-25T15:45:12.278Z,3.80
2019-05-25T15:47:40.684Z,3.47
2019-05-25T15:50:11.433Z,3.80
2019-05-25T15:52:39.885Z,3.53
2019-05-25T15:55:08.733Z,3.80
2019-05-25T15:57:37.133Z,3.30
2019-05-25T16:00:14.501Z,3.30
2019-05-25T16:02:42.962Z,3.50
2019-05-25T16:05:11.803Z,3.03
2019-05-25T16:07:45.981Z,4.20
2019-05-25T16:10:14.882Z,3.80
2019-05-25T16:12:43.348Z,3.67
2019-05-25T16:15:12.434Z,3.23
2019-05-25T16:17:41.103Z,3.20
2019-05-25T16:20:10.744Z,3.20
2019-05-25T16:22:39.149Z,3.13
2019-05-25T16:25:07.909Z,3.60
2019-05-25T16:27:36.305Z,3.70
2019-05-25T16:30:09.262Z,3.60
2019-05-25T16:33:09.934Z,3.40
2019-05-25T16:35:07.950Z,3.70
2019-05-25T16:37:36.739Z,3.33
2019-05-25T16:40:07.502Z,3.90
2019-05-25T16:42:35.902Z,3.53
2019-05-25T16:45:06.238Z,9.80
2019-05-25T16:47:34.875Z,3.83
2019-05-25T16:50:04.868Z,3.50
2019-05-25T16:52:33.271Z,3.47
2019-05-25T16:55:01.717Z,3.57
2019-05-25T16:57:30.116Z,2.87
2019-05-25T16:59:58.510Z,3.53
2019-05-25T17:02:26.946Z,3.20
2019-05-25T17:04:55.351Z,3.47
2019-05-25T17:07:23.751Z,3.30
2019-05-25T17:09:52.216Z,3.80
2019-05-25T17:12:20.685Z,3.53
2019-05-25T17:14:49.089Z,3.50
2019-05-25T17:17:17.528Z,3.37
2019-05-25T17:19:45.930Z,3.30
2019-05-25T17:22:14.333Z,4.20
2019-05-25T17:24:42.798Z,3.67
2019-05-25T17:27:11.189Z,3.87
2019-05-25T17:29:39.593Z,3.43
2019-05-25T17:32:08.033Z,3.20
2019-05-25T17:34:36.476Z,3.20
2019-05-25T17:37:04.873Z,4.33
2019-05-25T17:39:33.317Z,3.60
2019-05-25T17:42:01.718Z,3.83
2019-05-25T17:44:30.197Z,3.73
2019-05-25T17:46:58.764Z,4.17
2019-05-25T17:49:27.216Z,4.37
2019-05-25T17:51:55.701Z,3.90
2019-05-25T17:54:24.155Z,6.10
2019-05-25T17:56:52.620Z,34.83
2019-05-25T17:59:21.424Z,6.00
2019-05-25T18:01:49.931Z,4.60
2019-05-25T18:04:18.354Z,4.43
2019-05-25T18:06:46.783Z,3.90
2019-05-25T18:09:16.082Z,3.30
2019-05-25T18:11:44.531Z,4.03
2019-05-25T18:14:12.977Z,4.00
2019-05-25T18:16:41.463Z,7.27
2019-05-25T18:19:09.978Z,9.13
2019-05-25T18:21:38.400Z,7.00
2019-05-25T18:24:06.873Z,4.63
2019-05-25T18:26:35.351Z,5.00
2019-05-25T18:29:03.810Z,5.00
2019-05-25T18:31:32.213Z,3.83
2019-05-25T18:34:00.715Z,3.30
2019-05-25T18:36:29.195Z,3.87
2019-05-25T18:38:57.594Z,4.00
2019-05-25T18:41:26.806Z,3.40
2019-05-25T18:43:55.215Z,3.70
2019-05-25T18:46:23.644Z,3.60
2019-05-25T18:48:52.086Z,3.70
2019-05-25T18:51:20.571Z,4.20
2019-05-25T18:53:49.011Z,4.00
2019-05-25T18:56:17.447Z,4.08
2019-05-25T18:58:45.858Z,4.20
2019-05-25T19:01:14.554Z,4.23
2019-05-25T19:03:43.005Z,4.07
2019-05-25T19:06:11.391Z,6.08
2019-05-25T19:08:39.806Z,5.10
2019-05-25T19:11:08.301Z,5.30
2019-05-25T19:13:36.771Z,4.90
2019-05-25T19:16:06.022Z,5.12
2019-05-25T19:18:35.373Z,4.63
2019-05-25T19:21:04.349Z,5.20
2019-05-25T19:23:32.803Z,4.30
2019-05-25T19:26:01.196Z,5.03
2019-05-25T19:28:29.589Z,4.40
2019-05-25T19:30:58.048Z,5.10
2019-05-25T19:33:26.439Z,4.70
2019-05-25T19:35:54.843Z,4.27
2019-05-25T19:38:23.270Z,4.87
2019-05-25T19:40:51.673Z,5.20
2019-05-25T19:43:20.861Z,4.47
2019-05-25T19:45:49.395Z,4.58
2019-05-25T19:48:17.798Z,4.28
2019-05-25T19:50:46.230Z,4.80
2019-05-25T19:53:14.633Z,5.07
2019-05-25T19:55:43.042Z,5.03
2019-05-25T19:58:11.618Z,4.75
2019-05-25T20:00:40.241Z,4.93
2019-05-25T20:03:08.637Z,3.77
2019-05-25T20:05:37.037Z,4.03
2019-05-25T20:08:05.942Z,3.63
2019-05-25T20:10:34.343Z,4.30
2019-05-25T20:13:02.743Z,4.07
2019-05-25T20:15:31.185Z,4.53
2019-05-25T20:17:59.581Z,4.10
2019-05-25T20:20:27.982Z,3.60
2019-05-25T20:22:56.426Z,4.13
2019-05-25T20:25:24.829Z,4.70
2019-05-25T20:27:53.237Z,7.70
2019-05-25T20:30:21.827Z,19.70
2019-05-25T20:32:50.239Z,33.97
2019-05-25T20:35:31.943Z,17.10
2019-05-25T20:37:49.100Z,8.60
2019-05-25T20:40:17.530Z,7.10
2019-05-25T20:42:45.933Z,16.73
2019-05-25T20:45:14.650Z,8.05
2019-05-25T20:47:43.149Z,11.17
2019-05-25T20:50:12.150Z,7.60
2019-05-25T20:52:40.575Z,8.63
2019-05-25T20:55:10.574Z,7.60
2019-05-25T20:57:39.011Z,6.57
2019-05-25T21:00:07.528Z,8.40
2019-05-25T21:02:36.038Z,7.60
2019-05-25T21:05:07.015Z,9.83
2019-05-25T21:07:35.474Z,8.53
2019-05-25T21:10:06.979Z,8.10
2019-05-25T21:12:35.386Z,6.90
2019-05-25T21:15:08.050Z,6.80
2019-05-25T21:17:36.464Z,6.83
2019-05-25T21:20:06.562Z,8.43
2019-05-25T21:22:35.012Z,12.83
2019-05-25T21:25:06.227Z,10.77
2019-05-25T21:27:34.778Z,7.97
2019-05-25T21:30:03.416Z,5.73
2019-05-25T21:32:31.813Z,5.63
2019-05-25T21:35:00.677Z,6.03
2019-05-25T21:37:29.091Z,7.00
2019-05-25T21:39:57.575Z,9.00
2019-05-25T21:42:26.054Z,7.50
2019-05-25T21:44:54.530Z,8.67
2019-05-25T21:47:22.942Z,9.37
2019-05-25T21:49:51.386Z,10.23
2019-05-25T21:52:19.788Z,12.70
2019-05-25T21:54:48.220Z,11.90
2019-05-25T21:57:16.660Z,11.17
2019-05-25T21:59:45.067Z,8.53
2019-05-25T22:02:13.613Z,8.90
2019-05-25T22:04:42.072Z,7.50
2019-05-25T22:07:10.490Z,6.90
2019-05-25T22:09:38.885Z,6.67
2019-05-25T22:12:07.323Z,6.63
2019-05-25T22:14:35.746Z,6.80
2019-05-25T22:17:04.484Z,7.43
2019-05-25T22:19:32.953Z,8.28
2019-05-25T22:22:01.418Z,7.57
2019-05-25T22:24:29.816Z,7.53
2019-05-25T22:26:58.266Z,7.10
2019-05-25T22:29:26.673Z,7.57
2019-05-25T22:31:55.075Z,7.93
2019-05-25T22:34:23.699Z,9.20
2019-05-25T22:36:52.173Z,7.20
2019-05-25T22:39:20.564Z,6.93
2019-05-25T22:41:49.001Z,8.10
2019-05-25T22:44:17.407Z,8.50
2019-05-25T22:46:45.931Z,8.20
2019-05-25T22:49:14.330Z,8.47
2019-05-25T22:51:42.738Z,8.47
2019-05-25T22:54:11.173Z,9.33
2019-05-25T22:56:39.587Z,8.93
2019-05-25T22:59:07.978Z,11.37
2019-05-25T23:01:36.423Z,10.63
2019-05-25T23:04:05.768Z,10.00
2019-05-25T23:06:34.169Z,9.27
2019-05-25T23:09:02.603Z,9.10
2019-05-25T23:11:30.997Z,9.27
2019-05-25T23:13:59.410Z,10.17
2019-05-25T23:16:27.845Z,8.10
2019-05-25T23:18:56.268Z,7.70
2019-05-25T23:21:24.705Z,7.57
2019-05-25T23:23:53.112Z,7.30
2019-05-25T23:26:21.510Z,7.70
2019-05-25T23:28:50.110Z,7.17
2019-05-25T23:31:18.538Z,7.10
2019-05-25T23:33:46.935Z,7.10
2019-05-25T23:36:15.354Z,7.47
2019-05-25T23:38:43.781Z,7.00
2019-05-25T23:41:12.191Z,7.73
2019-05-25T23:43:40.589Z,8.03
2019-05-25T23:46:09.038Z,7.13
2019-05-25T23:48:37.446Z,8.07
2019-05-25T23:51:05.993Z,8.20
2019-05-25T23:53:34.448Z,8.27
2019-05-25T23:56:02.843Z,8.13
2019-05-25T23:58:31.250Z,9.53
